sensor_id;sensor_type;location;lat;lon;timestamp;temperature;humidity
78779;DHT22;68121;52.404;5.318;2023-08-12T00:02:14;20.50;71.00
78779;DHT22;68121;52.404;5.318;2023-08-12T00:04:40;20.50;71.10
78779;DHT22;68121;52.404;5.318;2023-08-12T00:07:06;20.50;71.20
78779;DHT22;68121;52.404;5.318;2023-08-12T00:09:32;20.50;71.30
78779;DHT22;68121;52.404;5.318;2023-08-12T00:11:58;20.50;71.40
78779;DHT22;68121;52.404;5.318;2023-08-12T00:14:24;20.40;71.50
78779;DHT22;68121;52.404;5.318;2023-08-12T00:16:50;20.40;71.50
78779;DHT22;68121;52.404;5.318;2023-08-12T00:19:16;20.40;71.60
78779;DHT22;68121;52.404;5.318;2023-08-12T00:21:42;20.30;71.70
78779;DHT22;68121;52.404;5.318;2023-08-12T00:24:08;20.30;71.70
78779;DHT22;68121;52.404;5.318;2023-08-12T00:26:34;20.30;71.80
78779;DHT22;68121;52.404;5.318;2023-08-12T00:29:00;20.30;71.90
78779;DHT22;68121;52.404;5.318;2023-08-12T00:31:27;20.30;71.90
78779;DHT22;68121;52.404;5.318;2023-08-12T00:33:53;20.30;72.00
78779;DHT22;68121;52.404;5.318;2023-08-12T00:36:19;20.30;72.00
78779;DHT22;68121;52.404;5.318;2023-08-12T00:38:45;20.20;72.20
78779;DHT22;68121;52.404;5.318;2023-08-12T00:41:11;20.20;72.20
78779;DHT22;68121;52.404;5.318;2023-08-12T00:43:37;20.20;72.10
78779;DHT22;68121;52.404;5.318;2023-08-12T00:46:03;20.20;72.20
78779;DHT22;68121;52.404;5.318;2023-08-12T00:48:30;20.20;72.30
78779;DHT22;68121;52.404;5.318;2023-08-12T00:50:56;20.10;72.30
78779;DHT22;68121;52.404;5.318;2023-08-12T00:53:22;20.10;72.30
78779;DHT22;68121;52.404;5.318;2023-08-12T00:55:48;20.10;72.40
78779;DHT22;68121;52.404;5.318;2023-08-12T00:58:15;20.10;72.30
78779;DHT22;68121;52.404;5.318;2023-08-12T01:00:41;20.10;72.40
78779;DHT22;68121;52.404;5.318;2023-08-12T01:03:07;20.00;72.50
78779;DHT22;68121;52.404;5.318;2023-08-12T01:05:33;20.00;72.60
78779;DHT22;68121;52.404;5.318;2023-08-12T01:07:59;20.00;72.60
78779;DHT22;68121;52.404;5.318;2023-08-12T01:10:31;20.00;72.70
78779;DHT22;68121;52.404;5.318;2023-08-12T01:13:13;20.00;72.70
78779;DHT22;68121;52.404;5.318;2023-08-12T01:15:42;20.00;72.70
78779;DHT22;68121;52.404;5.318;2023-08-12T01:18:10;20.00;72.60
78779;DHT22;68121;52.404;5.318;2023-08-12T01:20:37;20.00;72.50
78779;DHT22;68121;52.404;5.318;2023-08-12T01:23:10;20.00;72.50
78779;DHT22;68121;52.404;5.318;2023-08-12T01:25:37;20.00;72.70
78779;DHT22;68121;52.404;5.318;2023-08-12T01:28:03;20.00;72.70
78779;DHT22;68121;52.404;5.318;2023-08-12T01:30:29;20.00;72.70
78779;DHT22;68121;52.404;5.318;2023-08-12T01:35:43;20.00;72.90
78779;DHT22;68121;52.404;5.318;2023-08-12T01:38:12;20.00;73.00
78779;DHT22;68121;52.404;5.318;2023-08-12T01:40:39;20.00;73.00
78779;DHT22;68121;52.404;5.318;2023-08-12T01:43:06;20.00;73.00
78779;DHT22;68121;52.404;5.318;2023-08-12T01:45:34;20.00;73.10
78779;DHT22;68121;52.404;5.318;2023-08-12T01:48:01;20.00;73.20
78779;DHT22;68121;52.404;5.318;2023-08-12T01:50:27;20.00;73.20
78779;DHT22;68121;52.404;5.318;2023-08-12T01:52:53;20.00;73.20
78779;DHT22;68121;52.404;5.318;2023-08-12T01:55:19;20.00;73.20
78779;DHT22;68121;52.404;5.318;2023-08-12T01:57:45;20.00;73.30
78779;DHT22;68121;52.404;5.318;2023-08-12T02:00:11;20.00;73.30
78779;DHT22;68121;52.404;5.318;2023-08-12T02:02:37;20.00;73.30
78779;DHT22;68121;52.404;5.318;2023-08-12T02:05:04;20.00;73.40
78779;DHT22;68121;52.404;5.318;2023-08-12T02:07:30;20.00;73.50
78779;DHT22;68121;52.404;5.318;2023-08-12T02:09:56;20.00;73.50
78779;DHT22;68121;52.404;5.318;2023-08-12T02:12:22;20.00;73.50
78779;DHT22;68121;52.404;5.318;2023-08-12T02:14:48;20.00;73.60
78779;DHT22;68121;52.404;5.318;2023-08-12T02:17:14;20.00;73.50
78779;DHT22;68121;52.404;5.318;2023-08-12T02:19:40;20.00;73.60
78779;DHT22;68121;52.404;5.318;2023-08-12T02:22:06;20.00;73.60
78779;DHT22;68121;52.404;5.318;2023-08-12T02:24:32;20.00;73.60
78779;DHT22;68121;52.404;5.318;2023-08-12T02:26:58;20.00;73.60
78779;DHT22;68121;52.404;5.318;2023-08-12T02:29:24;20.00;73.60
78779;DHT22;68121;52.404;5.318;2023-08-12T02:31:50;20.00;73.60
78779;DHT22;68121;52.404;5.318;2023-08-12T02:34:16;20.00;73.60
78779;DHT22;68121;52.404;5.318;2023-08-12T02:36:43;20.00;73.70
78779;DHT22;68121;52.404;5.318;2023-08-12T02:39:09;20.00;73.70
78779;DHT22;68121;52.404;5.318;2023-08-12T02:41:35;20.00;73.80
78779;DHT22;68121;52.404;5.318;2023-08-12T02:44:01;20.00;73.70
78779;DHT22;68121;52.404;5.318;2023-08-12T02:46:27;20.00;73.80
78779;DHT22;68121;52.404;5.318;2023-08-12T02:48:53;20.00;73.80
78779;DHT22;68121;52.404;5.318;2023-08-12T02:51:19;20.10;73.80
78779;DHT22;68121;52.404;5.318;2023-08-12T02:53:45;20.10;73.80
78779;DHT22;68121;52.404;5.318;2023-08-12T02:56:11;20.00;73.80
78779;DHT22;68121;52.404;5.318;2023-08-12T02:58:37;20.00;73.80
78779;DHT22;68121;52.404;5.318;2023-08-12T03:01:03;20.00;73.90
78779;DHT22;68121;52.404;5.318;2023-08-12T03:03:32;20.10;74.00
78779;DHT22;68121;52.404;5.318;2023-08-12T03:05:58;20.10;74.00
78779;DHT22;68121;52.404;5.318;2023-08-12T03:08:24;20.10;74.10
78779;DHT22;68121;52.404;5.318;2023-08-12T03:10:50;20.10;74.10
78779;DHT22;68121;52.404;5.318;2023-08-12T03:13:23;20.10;74.10
78779;DHT22;68121;52.404;5.318;2023-08-12T03:15:49;20.10;74.10
78779;DHT22;68121;52.404;5.318;2023-08-12T03:18:15;20.10;74.20
78779;DHT22;68121;52.404;5.318;2023-08-12T03:20:41;20.10;74.20
78779;DHT22;68121;52.404;5.318;2023-08-12T03:23:07;20.10;74.20
78779;DHT22;68121;52.404;5.318;2023-08-12T03:25:33;20.20;74.30
78779;DHT22;68121;52.404;5.318;2023-08-12T03:27:59;20.20;74.30
78779;DHT22;68121;52.404;5.318;2023-08-12T03:30:25;20.20;74.40
78779;DHT22;68121;52.404;5.318;2023-08-12T03:32:52;20.20;74.40
78779;DHT22;68121;52.404;5.318;2023-08-12T03:35:19;20.20;74.40
78779;DHT22;68121;52.404;5.318;2023-08-12T03:37:45;20.30;74.40
78779;DHT22;68121;52.404;5.318;2023-08-12T03:40:11;20.30;74.40
78779;DHT22;68121;52.404;5.318;2023-08-12T03:42:37;20.30;74.50
78779;DHT22;68121;52.404;5.318;2023-08-12T03:45:03;20.30;74.60
78779;DHT22;68121;52.404;5.318;2023-08-12T03:47:29;20.30;74.60
78779;DHT22;68121;52.404;5.318;2023-08-12T03:49:56;20.30;74.60
78779;DHT22;68121;52.404;5.318;2023-08-12T03:52:22;20.30;74.60
78779;DHT22;68121;52.404;5.318;2023-08-12T03:54:48;20.30;74.70
78779;DHT22;68121;52.404;5.318;2023-08-12T03:57:15;20.30;74.70
78779;DHT22;68121;52.404;5.318;2023-08-12T03:59:41;20.30;74.70
78779;DHT22;68121;52.404;5.318;2023-08-12T04:02:07;20.30;74.80
78779;DHT22;68121;52.404;5.318;2023-08-12T04:04:33;20.30;74.80
78779;DHT22;68121;52.404;5.318;2023-08-12T04:07:00;20.30;74.80
78779;DHT22;68121;52.404;5.318;2023-08-12T04:09:26;20.30;74.80
78779;DHT22;68121;52.404;5.318;2023-08-12T04:11:52;20.30;75.00
78779;DHT22;68121;52.404;5.318;2023-08-12T04:14:18;20.30;75.00
78779;DHT22;68121;52.404;5.318;2023-08-12T04:16:44;20.30;75.10
78779;DHT22;68121;52.404;5.318;2023-08-12T04:19:10;20.30;75.00
78779;DHT22;68121;52.404;5.318;2023-08-12T04:21:36;20.30;75.10
78779;DHT22;68121;52.404;5.318;2023-08-12T04:24:04;20.30;75.10
78779;DHT22;68121;52.404;5.318;2023-08-12T04:26:30;20.30;75.20
78779;DHT22;68121;52.404;5.318;2023-08-12T04:28:56;20.30;75.30
78779;DHT22;68121;52.404;5.318;2023-08-12T04:31:22;20.30;75.30
78779;DHT22;68121;52.404;5.318;2023-08-12T04:33:48;20.30;75.30
78779;DHT22;68121;52.404;5.318;2023-08-12T04:36:15;20.30;75.40
78779;DHT22;68121;52.404;5.318;2023-08-12T04:38:41;20.30;75.40
78779;DHT22;68121;52.404;5.318;2023-08-12T04:41:07;20.30;75.40
78779;DHT22;68121;52.404;5.318;2023-08-12T04:43:33;20.30;75.50
78779;DHT22;68121;52.404;5.318;2023-08-12T04:45:59;20.30;75.50
78779;DHT22;68121;52.404;5.318;2023-08-12T04:48:26;20.30;75.50
78779;DHT22;68121;52.404;5.318;2023-08-12T04:50:52;20.30;75.60
78779;DHT22;68121;52.404;5.318;2023-08-12T04:53:18;20.20;75.70
78779;DHT22;68121;52.404;5.318;2023-08-12T04:55:44;20.20;75.70
78779;DHT22;68121;52.404;5.318;2023-08-12T04:58:10;20.20;75.70
78779;DHT22;68121;52.404;5.318;2023-08-12T05:00:36;20.20;75.70
78779;DHT22;68121;52.404;5.318;2023-08-12T05:03:02;20.30;75.80
78779;DHT22;68121;52.404;5.318;2023-08-12T05:05:28;20.30;75.80
78779;DHT22;68121;52.404;5.318;2023-08-12T05:07:55;20.30;75.90
78779;DHT22;68121;52.404;5.318;2023-08-12T05:10:21;20.30;75.90
78779;DHT22;68121;52.404;5.318;2023-08-12T05:12:47;20.20;75.80
78779;DHT22;68121;52.404;5.318;2023-08-12T05:15:14;20.20;75.90
78779;DHT22;68121;52.404;5.318;2023-08-12T05:17:40;20.20;75.90
78779;DHT22;68121;52.404;5.318;2023-08-12T05:20:07;20.20;76.00
78779;DHT22;68121;52.404;5.318;2023-08-12T05:22:34;20.20;76.00
78779;DHT22;68121;52.404;5.318;2023-08-12T05:25:00;20.20;76.00
78779;DHT22;68121;52.404;5.318;2023-08-12T05:27:26;20.20;76.10
78779;DHT22;68121;52.404;5.318;2023-08-12T05:29:52;20.30;76.10
78779;DHT22;68121;52.404;5.318;2023-08-12T05:32:18;20.30;76.10
78779;DHT22;68121;52.404;5.318;2023-08-12T05:34:44;20.30;76.10
78779;DHT22;68121;52.404;5.318;2023-08-12T05:37:10;20.30;76.20
78779;DHT22;68121;52.404;5.318;2023-08-12T05:39:39;20.30;76.10
78779;DHT22;68121;52.404;5.318;2023-08-12T05:42:05;20.30;76.10
78779;DHT22;68121;52.404;5.318;2023-08-12T05:44:31;20.30;76.10
78779;DHT22;68121;52.404;5.318;2023-08-12T05:46:57;20.30;76.10
78779;DHT22;68121;52.404;5.318;2023-08-12T05:49:23;20.30;76.10
78779;DHT22;68121;52.404;5.318;2023-08-12T05:51:49;20.40;76.20
78779;DHT22;68121;52.404;5.318;2023-08-12T05:54:16;20.30;76.10
78779;DHT22;68121;52.404;5.318;2023-08-12T05:56:42;20.40;76.20
78779;DHT22;68121;52.404;5.318;2023-08-12T05:59:08;20.50;76.20
78779;DHT22;68121;52.404;5.318;2023-08-12T06:01:34;20.50;76.20
78779;DHT22;68121;52.404;5.318;2023-08-12T06:04:00;20.50;76.10
78779;DHT22;68121;52.404;5.318;2023-08-12T06:06:26;20.50;76.20
78779;DHT22;68121;52.404;5.318;2023-08-12T06:08:52;20.50;76.20
78779;DHT22;68121;52.404;5.318;2023-08-12T06:11:18;20.50;76.20
78779;DHT22;68121;52.404;5.318;2023-08-12T06:13:44;20.50;76.20
78779;DHT22;68121;52.404;5.318;2023-08-12T06:16:10;20.50;76.20
78779;DHT22;68121;52.404;5.318;2023-08-12T06:18:36;20.60;76.20
78779;DHT22;68121;52.404;5.318;2023-08-12T06:21:02;20.50;76.10
78779;DHT22;68121;52.404;5.318;2023-08-12T06:23:28;20.50;76.20
78779;DHT22;68121;52.404;5.318;2023-08-12T06:25:55;20.50;76.30
78779;DHT22;68121;52.404;5.318;2023-08-12T06:28:21;20.50;76.40
78779;DHT22;68121;52.404;5.318;2023-08-12T06:30:48;20.50;76.40
78779;DHT22;68121;52.404;5.318;2023-08-12T06:33:14;20.50;76.40
78779;DHT22;68121;52.404;5.318;2023-08-12T06:35:41;20.50;76.50
78779;DHT22;68121;52.404;5.318;2023-08-12T06:38:07;20.50;76.50
78779;DHT22;68121;52.404;5.318;2023-08-12T06:40:37;20.50;76.50
78779;DHT22;68121;52.404;5.318;2023-08-12T06:43:03;20.50;76.60
78779;DHT22;68121;52.404;5.318;2023-08-12T06:45:29;20.50;76.70
78779;DHT22;68121;52.404;5.318;2023-08-12T06:47:55;20.40;76.70
78779;DHT22;68121;52.404;5.318;2023-08-12T06:50:21;20.40;76.70
78779;DHT22;68121;52.404;5.318;2023-08-12T06:52:47;20.40;76.90
78779;DHT22;68121;52.404;5.318;2023-08-12T06:55:13;20.40;76.90
78779;DHT22;68121;52.404;5.318;2023-08-12T06:57:40;20.30;76.90
78779;DHT22;68121;52.404;5.318;2023-08-12T07:00:06;20.30;77.00
78779;DHT22;68121;52.404;5.318;2023-08-12T07:02:33;20.30;77.00
78779;DHT22;68121;52.404;5.318;2023-08-12T07:04:59;20.30;77.00
78779;DHT22;68121;52.404;5.318;2023-08-12T07:07:25;20.30;77.10
78779;DHT22;68121;52.404;5.318;2023-08-12T07:09:51;20.20;77.20
78779;DHT22;68121;52.404;5.318;2023-08-12T07:12:17;20.20;77.20
78779;DHT22;68121;52.404;5.318;2023-08-12T07:14:43;20.10;77.30
78779;DHT22;68121;52.404;5.318;2023-08-12T07:17:09;20.10;77.30
78779;DHT22;68121;52.404;5.318;2023-08-12T07:19:35;20.10;77.30
78779;DHT22;68121;52.404;5.318;2023-08-12T07:22:01;20.10;77.40
78779;DHT22;68121;52.404;5.318;2023-08-12T07:24:27;20.10;77.30
78779;DHT22;68121;52.404;5.318;2023-08-12T07:26:53;20.00;77.40
78779;DHT22;68121;52.404;5.318;2023-08-12T07:29:20;20.00;77.40
78779;DHT22;68121;52.404;5.318;2023-08-12T07:31:46;20.10;77.50
78779;DHT22;68121;52.404;5.318;2023-08-12T07:34:12;20.10;77.40
78779;DHT22;68121;52.404;5.318;2023-08-12T07:36:40;20.10;77.50
78779;DHT22;68121;52.404;5.318;2023-08-12T07:39:06;20.00;77.50
78779;DHT22;68121;52.404;5.318;2023-08-12T07:41:33;20.00;77.50
78779;DHT22;68121;52.404;5.318;2023-08-12T07:43:59;20.00;77.50
78779;DHT22;68121;52.404;5.318;2023-08-12T07:46:25;20.10;77.50
78779;DHT22;68121;52.404;5.318;2023-08-12T07:48:51;20.10;77.50
78779;DHT22;68121;52.404;5.318;2023-08-12T07:51:17;20.10;77.50
78779;DHT22;68121;52.404;5.318;2023-08-12T07:53:43;20.10;77.50
78779;DHT22;68121;52.404;5.318;2023-08-12T07:56:09;20.10;77.50
78779;DHT22;68121;52.404;5.318;2023-08-12T07:58:35;20.10;77.50
78779;DHT22;68121;52.404;5.318;2023-08-12T08:01:01;20.10;77.50
78779;DHT22;68121;52.404;5.318;2023-08-12T08:03:27;20.20;77.50
78779;DHT22;68121;52.404;5.318;2023-08-12T08:05:55;20.20;77.50
78779;DHT22;68121;52.404;5.318;2023-08-12T08:08:21;20.20;77.50
78779;DHT22;68121;52.404;5.318;2023-08-12T08:10:47;20.20;77.50
78779;DHT22;68121;52.404;5.318;2023-08-12T08:13:13;20.20;77.60
78779;DHT22;68121;52.404;5.318;2023-08-12T08:15:39;20.20;77.60
78779;DHT22;68121;52.404;5.318;2023-08-12T08:18:05;20.20;77.50
78779;DHT22;68121;52.404;5.318;2023-08-12T08:20:31;20.30;77.60
78779;DHT22;68121;52.404;5.318;2023-08-12T08:22:57;20.30;77.70
78779;DHT22;68121;52.404;5.318;2023-08-12T08:25:23;20.30;77.60
78779;DHT22;68121;52.404;5.318;2023-08-12T08:27:50;20.30;77.60
78779;DHT22;68121;52.404;5.318;2023-08-12T08:30:16;20.20;77.60
78779;DHT22;68121;52.404;5.318;2023-08-12T08:32:42;20.20;77.60
78779;DHT22;68121;52.404;5.318;2023-08-12T08:35:08;20.20;77.60
78779;DHT22;68121;52.404;5.318;2023-08-12T08:37:34;20.30;77.60
78779;DHT22;68121;52.404;5.318;2023-08-12T08:40:00;20.30;77.50
78779;DHT22;68121;52.404;5.318;2023-08-12T08:42:26;20.30;77.50
78779;DHT22;68121;52.404;5.318;2023-08-12T08:44:53;20.30;77.50
78779;DHT22;68121;52.404;5.318;2023-08-12T08:47:25;20.20;77.60
78779;DHT22;68121;52.404;5.318;2023-08-12T08:49:55;20.30;77.60
78779;DHT22;68121;52.404;5.318;2023-08-12T08:52:25;20.30;77.70
78779;DHT22;68121;52.404;5.318;2023-08-12T08:54:51;20.30;77.60
78779;DHT22;68121;52.404;5.318;2023-08-12T08:57:18;20.20;77.50
78779;DHT22;68121;52.404;5.318;2023-08-12T08:59:45;20.00;77.20
78779;DHT22;68121;52.404;5.318;2023-08-12T09:02:16;19.80;77.10
78779;DHT22;68121;52.404;5.318;2023-08-12T09:04:46;19.60;77.10
78779;DHT22;68121;52.404;5.318;2023-08-12T09:07:13;19.50;77.00
78779;DHT22;68121;52.404;5.318;2023-08-12T09:09:44;19.30;77.00
78779;DHT22;68121;52.404;5.318;2023-08-12T09:12:14;19.20;77.00
78779;DHT22;68121;52.404;5.318;2023-08-12T09:14:42;19.10;76.80
78779;DHT22;68121;52.404;5.318;2023-08-12T09:17:09;19.00;76.80
78779;DHT22;68121;52.404;5.318;2023-08-12T09:19:35;19.00;76.80
78779;DHT22;68121;52.404;5.318;2023-08-12T09:22:03;18.90;76.80
78779;DHT22;68121;52.404;5.318;2023-08-12T09:24:30;18.90;76.60
78779;DHT22;68121;52.404;5.318;2023-08-12T09:26:57;18.90;76.50
78779;DHT22;68121;52.404;5.318;2023-08-12T09:29:29;18.90;76.40
78779;DHT22;68121;52.404;5.318;2023-08-12T09:32:13;18.90;76.40
78779;DHT22;68121;52.404;5.318;2023-08-12T09:34:52;18.90;76.40
78779;DHT22;68121;52.404;5.318;2023-08-12T09:37:19;18.90;76.30
78779;DHT22;68121;52.404;5.318;2023-08-12T09:39:47;18.90;76.20
78779;DHT22;68121;52.404;5.318;2023-08-12T09:42:14;19.00;76.20
78779;DHT22;68121;52.404;5.318;2023-08-12T09:44:40;19.00;76.00
78779;DHT22;68121;52.404;5.318;2023-08-12T09:47:07;19.00;75.80
78779;DHT22;68121;52.404;5.318;2023-08-12T09:49:38;19.00;75.70
78779;DHT22;68121;52.404;5.318;2023-08-12T09:52:05;19.10;75.60
78779;DHT22;68121;52.404;5.318;2023-08-12T09:54:31;19.10;75.50
78779;DHT22;68121;52.404;5.318;2023-08-12T09:57:00;19.10;75.50
78779;DHT22;68121;52.404;5.318;2023-08-12T09:59:31;19.20;75.40
78779;DHT22;68121;52.404;5.318;2023-08-12T10:02:02;19.30;75.20
78779;DHT22;68121;52.404;5.318;2023-08-12T10:04:37;19.30;75.10
78779;DHT22;68121;52.404;5.318;2023-08-12T10:07:06;19.40;75.00
78779;DHT22;68121;52.404;5.318;2023-08-12T10:09:33;19.50;75.00
78779;DHT22;68121;52.404;5.318;2023-08-12T10:12:01;19.60;75.00
78779;DHT22;68121;52.404;5.318;2023-08-12T10:14:29;19.70;74.70
78779;DHT22;68121;52.404;5.318;2023-08-12T10:16:55;19.70;74.50
78779;DHT22;68121;52.404;5.318;2023-08-12T10:19:22;19.70;74.40
78779;DHT22;68121;52.404;5.318;2023-08-12T10:21:56;19.90;74.40
78779;DHT22;68121;52.404;5.318;2023-08-12T10:24:28;19.90;74.30
78779;DHT22;68121;52.404;5.318;2023-08-12T10:26:55;20.00;74.10
78779;DHT22;68121;52.404;5.318;2023-08-12T10:29:24;20.00;74.10
78779;DHT22;68121;52.404;5.318;2023-08-12T10:31:51;20.20;73.90
78779;DHT22;68121;52.404;5.318;2023-08-12T10:34:21;20.30;73.90
78779;DHT22;68121;52.404;5.318;2023-08-12T10:36:48;20.50;73.80
78779;DHT22;68121;52.404;5.318;2023-08-12T10:39:14;20.60;73.50
78779;DHT22;68121;52.404;5.318;2023-08-12T10:41:50;20.70;73.20
78779;DHT22;68121;52.404;5.318;2023-08-12T10:44:19;20.80;73.20
78779;DHT22;68121;52.404;5.318;2023-08-12T10:46:59;21.00;73.20
78779;DHT22;68121;52.404;5.318;2023-08-12T10:49:25;21.10;72.90
78779;DHT22;68121;52.404;5.318;2023-08-12T10:51:52;21.30;72.60
78779;DHT22;68121;52.404;5.318;2023-08-12T10:57:18;21.40;72.00
78779;DHT22;68121;52.404;5.318;2023-08-12T11:02:20;21.70;71.30
78779;DHT22;68121;52.404;5.318;2023-08-12T11:05:11;21.80;71.10
78779;DHT22;68121;52.404;5.318;2023-08-12T11:07:42;22.10;70.70
78779;DHT22;68121;52.404;5.318;2023-08-12T11:10:13;22.30;70.40
78779;DHT22;68121;52.404;5.318;2023-08-12T11:12:47;22.60;70.10
78779;DHT22;68121;52.404;5.318;2023-08-12T11:15:14;22.90;69.70
78779;DHT22;68121;52.404;5.318;2023-08-12T11:17:41;23.10;69.10
78779;DHT22;68121;52.404;5.318;2023-08-12T11:20:11;23.20;68.70
78779;DHT22;68121;52.404;5.318;2023-08-12T11:22:42;23.40;68.60
78779;DHT22;68121;52.404;5.318;2023-08-12T11:25:12;23.50;68.30
78779;DHT22;68121;52.404;5.318;2023-08-12T11:27:43;23.50;68.20
78779;DHT22;68121;52.404;5.318;2023-08-12T11:30:12;23.60;67.60
78779;DHT22;68121;52.404;5.318;2023-08-12T11:32:39;23.60;67.10
78779;DHT22;68121;52.404;5.318;2023-08-12T11:35:06;23.90;66.50
78779;DHT22;68121;52.404;5.318;2023-08-12T11:37:34;24.00;66.00
78779;DHT22;68121;52.404;5.318;2023-08-12T11:40:01;24.00;65.60
78779;DHT22;68121;52.404;5.318;2023-08-12T11:42:29;24.20;65.40
78779;DHT22;68121;52.404;5.318;2023-08-12T11:44:55;24.30;65.10
78779;DHT22;68121;52.404;5.318;2023-08-12T11:47:21;24.40;64.80
78779;DHT22;68121;52.404;5.318;2023-08-12T11:49:47;24.40;64.60
78779;DHT22;68121;52.404;5.318;2023-08-12T11:52:14;24.50;64.40
78779;DHT22;68121;52.404;5.318;2023-08-12T11:54:40;24.70;64.20
78779;DHT22;68121;52.404;5.318;2023-08-12T11:57:06;24.70;64.00
78779;DHT22;68121;52.404;5.318;2023-08-12T11:59:33;24.90;64.00
78779;DHT22;68121;52.404;5.318;2023-08-12T12:02:02;25.00;63.90
78779;DHT22;68121;52.404;5.318;2023-08-12T12:04:31;25.20;63.50
78779;DHT22;68121;52.404;5.318;2023-08-12T12:06:57;25.30;63.20
78779;DHT22;68121;52.404;5.318;2023-08-12T12:09:23;25.40;62.80
78779;DHT22;68121;52.404;5.318;2023-08-12T12:11:55;25.40;62.30
78779;DHT22;68121;52.404;5.318;2023-08-12T12:14:21;25.50;62.10
78779;DHT22;68121;52.404;5.318;2023-08-12T12:16:48;25.40;62.00
78779;DHT22;68121;52.404;5.318;2023-08-12T12:19:21;25.40;61.80
78779;DHT22;68121;52.404;5.318;2023-08-12T12:21:50;25.30;61.60
78779;DHT22;68121;52.404;5.318;2023-08-12T12:24:17;25.30;61.60
78779;DHT22;68121;52.404;5.318;2023-08-12T12:26:44;25.40;61.30
78779;DHT22;68121;52.404;5.318;2023-08-12T12:29:10;25.50;60.90
78779;DHT22;68121;52.404;5.318;2023-08-12T12:31:40;25.60;60.70
78779;DHT22;68121;52.404;5.318;2023-08-12T12:34:07;25.80;60.30
78779;DHT22;68121;52.404;5.318;2023-08-12T12:36:36;25.80;59.90
78779;DHT22;68121;52.404;5.318;2023-08-12T12:39:03;26.00;59.60
78779;DHT22;68121;52.404;5.318;2023-08-12T12:41:30;26.00;59.50
78779;DHT22;68121;52.404;5.318;2023-08-12T12:43:56;26.10;59.40
78779;DHT22;68121;52.404;5.318;2023-08-12T12:46:23;26.20;59.10
78779;DHT22;68121;52.404;5.318;2023-08-12T12:48:49;26.20;58.70
78779;DHT22;68121;52.404;5.318;2023-08-12T12:51:15;26.20;58.50
78779;DHT22;68121;52.404;5.318;2023-08-12T12:53:41;26.20;58.30
78779;DHT22;68121;52.404;5.318;2023-08-12T12:56:07;26.20;58.30
78779;DHT22;68121;52.404;5.318;2023-08-12T12:58:35;26.20;58.20
78779;DHT22;68121;52.404;5.318;2023-08-12T13:01:01;26.20;58.20
78779;DHT22;68121;52.404;5.318;2023-08-12T13:03:32;26.20;58.00
78779;DHT22;68121;52.404;5.318;2023-08-12T13:05:58;26.30;57.80
78779;DHT22;68121;52.404;5.318;2023-08-12T13:08:25;26.40;57.70
78779;DHT22;68121;52.404;5.318;2023-08-12T13:10:51;26.40;57.30
78779;DHT22;68121;52.404;5.318;2023-08-12T13:13:18;26.50;57.00
78779;DHT22;68121;52.404;5.318;2023-08-12T13:15:45;26.50;56.90
78779;DHT22;68121;52.404;5.318;2023-08-12T13:18:11;26.60;56.60
78779;DHT22;68121;52.404;5.318;2023-08-12T13:20:38;26.60;56.50
78779;DHT22;68121;52.404;5.318;2023-08-12T13:23:04;26.60;56.20
78779;DHT22;68121;52.404;5.318;2023-08-12T13:25:32;26.60;56.10
78779;DHT22;68121;52.404;5.318;2023-08-12T13:28:00;26.70;56.00
78779;DHT22;68121;52.404;5.318;2023-08-12T13:30:27;26.70;55.90
78779;DHT22;68121;52.404;5.318;2023-08-12T13:32:53;26.70;55.70
78779;DHT22;68121;52.404;5.318;2023-08-12T13:35:20;26.80;55.50
78779;DHT22;68121;52.404;5.318;2023-08-12T13:37:47;26.80;55.60
78779;DHT22;68121;52.404;5.318;2023-08-12T13:40:13;26.90;55.50
78779;DHT22;68121;52.404;5.318;2023-08-12T13:42:41;26.90;55.50
78779;DHT22;68121;52.404;5.318;2023-08-12T13:45:09;26.90;55.10
78779;DHT22;68121;52.404;5.318;2023-08-12T13:47:35;26.90;55.00
78779;DHT22;68121;52.404;5.318;2023-08-12T13:50:02;26.80;54.70
78779;DHT22;68121;52.404;5.318;2023-08-12T13:52:28;26.60;54.80
78779;DHT22;68121;52.404;5.318;2023-08-12T13:54:54;26.60;54.80
78779;DHT22;68121;52.404;5.318;2023-08-12T13:57:20;26.50;54.80
78779;DHT22;68121;52.404;5.318;2023-08-12T13:59:46;26.50;54.70
78779;DHT22;68121;52.404;5.318;2023-08-12T14:02:14;26.60;54.70
78779;DHT22;68121;52.404;5.318;2023-08-12T14:04:40;26.50;54.80
78779;DHT22;68121;52.404;5.318;2023-08-12T14:07:06;26.50;54.80
78779;DHT22;68121;52.404;5.318;2023-08-12T14:09:33;26.50;54.80
78779;DHT22;68121;52.404;5.318;2023-08-12T14:11:59;26.60;54.90
78779;DHT22;68121;52.404;5.318;2023-08-12T14:14:26;26.60;55.00
78779;DHT22;68121;52.404;5.318;2023-08-12T14:16:55;26.60;54.90
78779;DHT22;68121;52.404;5.318;2023-08-12T14:19:22;26.50;54.40
78779;DHT22;68121;52.404;5.318;2023-08-12T14:21:48;26.40;54.10
78779;DHT22;68121;52.404;5.318;2023-08-12T14:24:14;26.10;54.10
78779;DHT22;68121;52.404;5.318;2023-08-12T14:26:40;26.00;54.30
78779;DHT22;68121;52.404;5.318;2023-08-12T14:29:06;25.90;54.60
78779;DHT22;68121;52.404;5.318;2023-08-12T14:31:33;25.80;54.70
78779;DHT22;68121;52.404;5.318;2023-08-12T14:34:00;25.80;54.80
78779;DHT22;68121;52.404;5.318;2023-08-12T14:36:27;25.80;54.70
78779;DHT22;68121;52.404;5.318;2023-08-12T14:38:53;25.60;54.60
78779;DHT22;68121;52.404;5.318;2023-08-12T14:41:19;25.50;54.60
78779;DHT22;68121;52.404;5.318;2023-08-12T14:43:45;25.40;54.60
78779;DHT22;68121;52.404;5.318;2023-08-12T14:46:11;25.30;54.60
78779;DHT22;68121;52.404;5.318;2023-08-12T14:48:37;25.30;54.70
78779;DHT22;68121;52.404;5.318;2023-08-12T14:51:03;25.30;54.60
78779;DHT22;68121;52.404;5.318;2023-08-12T14:53:30;25.30;54.60
78779;DHT22;68121;52.404;5.318;2023-08-12T14:55:56;25.20;54.50
78779;DHT22;68121;52.404;5.318;2023-08-12T14:58:22;25.10;54.60
78779;DHT22;68121;52.404;5.318;2023-08-12T15:00:48;25.00;54.70
78779;DHT22;68121;52.404;5.318;2023-08-12T15:03:14;25.00;54.60
78779;DHT22;68121;52.404;5.318;2023-08-12T15:05:41;24.80;54.60
78779;DHT22;68121;52.404;5.318;2023-08-12T15:08:07;24.70;54.70
78779;DHT22;68121;52.404;5.318;2023-08-12T15:10:33;24.70;54.70
78779;DHT22;68121;52.404;5.318;2023-08-12T15:13:00;24.70;54.80
78779;DHT22;68121;52.404;5.318;2023-08-12T15:15:26;24.60;54.70
78779;DHT22;68121;52.404;5.318;2023-08-12T15:17:52;24.60;54.70
78779;DHT22;68121;52.404;5.318;2023-08-12T15:20:18;24.50;54.80
78779;DHT22;68121;52.404;5.318;2023-08-12T15:22:44;24.40;54.80
78779;DHT22;68121;52.404;5.318;2023-08-12T15:25:10;24.40;55.10
78779;DHT22;68121;52.404;5.318;2023-08-12T15:27:37;24.40;55.20
78779;DHT22;68121;52.404;5.318;2023-08-12T15:30:03;24.30;55.20
78779;DHT22;68121;52.404;5.318;2023-08-12T15:32:29;24.20;55.20
78779;DHT22;68121;52.404;5.318;2023-08-12T15:34:56;24.20;55.30
78779;DHT22;68121;52.404;5.318;2023-08-12T15:37:22;24.20;55.30